createdAt,value
2023-02-09T00:01:00.978Z,24.30
2023-02-09T00:03:27.596Z,26.70
2023-02-09T00:05:54.181Z,24.97
2023-02-09T00:08:20.585Z,25.17
2023-02-09T00:10:47.553Z,27.13
2023-02-09T00:13:23.669Z,27.23
2023-02-09T00:15:51.233Z,23.33
2023-02-09T00:18:18.004Z,27.30
2023-02-09T00:20:44.971Z,26.97
2023-02-09T00:23:11.607Z,25.47
2023-02-09T00:25:39.024Z,24.03
2023-02-09T00:28:06.007Z,27.10
2023-02-09T00:30:33.118Z,23.70
2023-02-09T00:32:59.472Z,24.20
2023-02-09T00:35:25.885Z,23.77
2023-02-09T00:37:53.652Z,24.93
2023-02-09T00:40:20.224Z,27.43
2023-02-09T00:42:46.612Z,24.50
2023-02-09T00:45:16.343Z,23.17
2023-02-09T00:47:43.424Z,24.30
2023-02-09T00:50:09.816Z,23.13
2023-02-09T00:52:36.321Z,26.17
2023-02-09T00:55:03.331Z,24.30
2023-02-09T00:57:29.748Z,25.93
2023-02-09T00:59:56.433Z,23.80
2023-02-09T01:02:22.814Z,23.70
2023-02-09T01:04:49.941Z,25.50
2023-02-09T01:07:16.470Z,28.27
2023-02-09T01:09:42.892Z,24.37
2023-02-09T01:12:09.312Z,22.03
2023-02-09T01:14:38.408Z,22.70
2023-02-09T01:17:05.022Z,23.87
2023-02-09T01:19:31.992Z,26.13
2023-02-09T01:21:59.243Z,24.70
2023-02-09T01:24:25.757Z,22.03
2023-02-09T01:26:52.337Z,25.13
2023-02-09T01:29:20.175Z,22.80
2023-02-09T01:31:48.277Z,28.97
2023-02-09T01:34:18.242Z,24.67
2023-02-09T01:36:47.672Z,22.67
2023-02-09T01:39:14.889Z,23.63
2023-02-09T01:41:41.734Z,23.40
2023-02-09T01:44:42.872Z,22.07
2023-02-09T01:47:13.281Z,25.00
2023-02-09T01:49:39.809Z,23.83
2023-02-09T01:52:10.264Z,25.53
2023-02-09T01:54:44.291Z,24.17
2023-02-09T01:57:13.189Z,24.00
2023-02-09T01:59:42.850Z,25.17
2023-02-09T02:02:10.534Z,24.37
2023-02-09T02:04:38.683Z,24.43
2023-02-09T02:07:09.893Z,22.00
2023-02-09T02:09:36.805Z,24.00
2023-02-09T02:12:05.151Z,23.70
2023-02-09T02:14:33.895Z,23.30
2023-02-09T02:17:15.286Z,20.83
2023-02-09T02:20:16.034Z,25.20
2023-02-09T02:22:55.495Z,22.20
2023-02-09T02:25:54.192Z,21.80
2023-02-09T02:28:43.279Z,21.67
2023-02-09T02:31:59.187Z,21.83
2023-02-09T02:34:34.598Z,23.53
2023-02-09T02:37:13.487Z,22.77
2023-02-09T02:39:50.358Z,20.17
2023-02-09T02:42:42.267Z,20.87
2023-02-09T02:45:13.058Z,22.67
2023-02-09T02:47:47.093Z,24.10
2023-02-09T02:50:15.824Z,20.50
2023-02-09T02:52:46.626Z,22.13
2023-02-09T02:55:16.413Z,21.63
2023-02-09T02:57:46.974Z,22.50
2023-02-09T03:00:18.664Z,21.87
2023-02-09T03:02:49.780Z,22.10
2023-02-09T03:05:17.305Z,22.77
2023-02-09T03:07:44.165Z,23.43
2023-02-09T03:10:26.261Z,20.10
2023-02-09T03:13:07.168Z,20.67
2023-02-09T03:15:44.176Z,20.97
2023-02-09T03:18:16.565Z,23.00
2023-02-09T03:20:50.643Z,23.40
2023-02-09T03:23:26.973Z,22.00
2023-02-09T03:25:56.517Z,20.90
2023-02-09T03:28:28.666Z,21.27
2023-02-09T03:30:57.207Z,20.33
2023-02-09T03:33:27.377Z,20.93
2023-02-09T03:35:58.316Z,21.47
2023-02-09T03:38:25.544Z,21.30
2023-02-09T03:40:52.005Z,20.57
2023-02-09T03:43:18.384Z,20.37
2023-02-09T03:45:44.796Z,21.73
2023-02-09T03:48:11.325Z,21.43
2023-02-09T03:50:38.491Z,22.23
2023-02-09T03:53:05.771Z,20.47
2023-02-09T03:55:32.210Z,20.90
2023-02-09T03:57:58.572Z,20.70
2023-02-09T04:00:25.113Z,23.73
2023-02-09T04:02:51.660Z,22.73
2023-02-09T04:05:18.292Z,20.47
2023-02-09T04:07:45.554Z,23.00
2023-02-09T04:10:11.934Z,21.50
2023-02-09T04:12:38.342Z,22.17
2023-02-09T04:15:05.324Z,21.80
2023-02-09T04:17:31.736Z,20.33
2023-02-09T04:19:58.169Z,23.40
2023-02-09T04:22:24.574Z,20.10
2023-02-09T04:24:51.601Z,21.00
2023-02-09T04:27:18.007Z,24.27
2023-02-09T04:29:44.394Z,23.03
2023-02-09T04:32:10.876Z,22.63
2023-02-09T04:34:37.306Z,21.53
2023-02-09T04:37:03.705Z,22.07
2023-02-09T04:39:30.216Z,21.70
2023-02-09T04:41:57.239Z,20.73
2023-02-09T04:44:23.662Z,22.40
2023-02-09T04:46:50.045Z,23.60
2023-02-09T04:49:16.438Z,27.73
2023-02-09T04:51:42.841Z,23.90
2023-02-09T04:54:09.289Z,25.53
2023-02-09T04:56:37.240Z,24.23
2023-02-09T04:59:31.592Z,25.97
2023-02-09T05:01:58.057Z,22.57
2023-02-09T05:04:24.455Z,22.57
2023-02-09T05:06:50.876Z,22.40
2023-02-09T05:09:17.314Z,24.87
2023-02-09T05:11:43.675Z,23.23
2023-02-09T05:14:10.683Z,24.93
2023-02-09T05:16:39.119Z,22.80
2023-02-09T05:19:05.851Z,23.83
2023-02-09T05:21:32.243Z,24.30
2023-02-09T05:23:58.679Z,23.13
2023-02-09T05:26:25.142Z,26.37
2023-02-09T05:28:51.571Z,26.43
2023-02-09T05:31:18.687Z,29.23
2023-02-09T05:33:45.152Z,25.40
2023-02-09T05:36:12.102Z,27.67
2023-02-09T05:38:39.379Z,26.67
2023-02-09T05:41:06.548Z,28.80
2023-02-09T05:43:33.015Z,28.70
2023-02-09T05:45:59.520Z,26.60
2023-02-09T05:48:26.669Z,26.43
2023-02-09T05:50:53.127Z,28.27
2023-02-09T05:53:19.649Z,30.73
2023-02-09T05:55:46.861Z,26.63
2023-02-09T05:58:13.723Z,29.47
2023-02-09T06:00:40.133Z,30.17
2023-02-09T06:03:06.607Z,29.53
2023-02-09T06:05:33.723Z,29.47
2023-02-09T06:08:00.134Z,29.47
2023-02-09T06:10:26.510Z,27.27
2023-02-09T06:12:52.948Z,28.53
2023-02-09T06:15:20.329Z,26.00
2023-02-09T06:17:46.804Z,25.57
2023-02-09T06:20:13.203Z,24.17
2023-02-09T06:22:40.258Z,29.10
2023-02-09T06:25:07.179Z,23.67
2023-02-09T06:27:33.616Z,25.07
2023-02-09T06:30:00.084Z,25.77
2023-02-09T06:32:26.546Z,24.67
2023-02-09T06:34:53.030Z,23.53
2023-02-09T06:37:19.507Z,25.27
2023-02-09T06:39:46.582Z,24.83
2023-02-09T06:42:13.139Z,24.73
2023-02-09T06:44:39.558Z,24.07
2023-02-09T06:47:05.966Z,21.53
2023-02-09T06:49:32.401Z,33.00
2023-02-09T06:52:10.481Z,24.00
2023-02-09T06:54:37.034Z,18.97
2023-02-09T06:57:04.200Z,21.77
2023-02-09T06:59:30.592Z,19.97
2023-02-09T07:01:57.047Z,19.03
2023-02-09T07:04:23.535Z,20.43
2023-02-09T07:06:50.048Z,17.80
2023-02-09T07:09:19.952Z,16.50
2023-02-09T07:11:46.351Z,16.53
2023-02-09T07:14:13.482Z,16.40
2023-02-09T07:16:40.835Z,16.43
2023-02-09T07:19:07.514Z,16.63
2023-02-09T07:21:33.969Z,15.93
2023-02-09T07:24:00.570Z,15.73
2023-02-09T07:26:27.084Z,19.33
2023-02-09T07:28:53.520Z,16.77
2023-02-09T07:31:20.789Z,15.47
2023-02-09T07:33:52.315Z,15.20
2023-02-09T07:36:19.290Z,17.23
2023-02-09T07:38:45.784Z,14.00
2023-02-09T07:41:15.783Z,14.20
2023-02-09T07:43:42.456Z,16.07
2023-02-09T07:46:09.139Z,14.60
2023-02-09T07:48:36.688Z,13.63
2023-02-09T07:51:03.867Z,14.40
2023-02-09T07:53:32.708Z,15.30
2023-02-09T07:55:59.195Z,14.50
2023-02-09T07:58:25.650Z,15.07
2023-02-09T08:00:52.108Z,14.30
2023-02-09T08:03:21.986Z,15.47
2023-02-09T08:05:55.233Z,16.20
2023-02-09T08:08:21.810Z,14.43
2023-02-09T08:10:51.850Z,17.57
2023-02-09T08:13:18.373Z,14.57
2023-02-09T08:15:49.248Z,15.27
2023-02-09T08:18:19.506Z,13.80
2023-02-09T08:20:47.090Z,11.23
2023-02-09T08:23:18.964Z,11.53
2023-02-09T08:25:47.290Z,13.40
2023-02-09T08:28:14.110Z,12.20
2023-02-09T08:30:40.706Z,12.70
2023-02-09T08:33:08.853Z,10.90
2023-02-09T08:35:35.318Z,12.30
2023-02-09T08:38:03.575Z,10.70
2023-02-09T08:40:31.274Z,9.40
2023-02-09T08:42:59.184Z,14.03
2023-02-09T08:45:25.786Z,10.87
2023-02-09T08:47:52.287Z,9.40
2023-02-09T08:50:18.730Z,9.87
2023-02-09T08:52:45.276Z,10.63
2023-02-09T08:55:11.793Z,11.40
2023-02-09T08:57:44.351Z,8.47
2023-02-09T09:00:12.494Z,9.90
2023-02-09T09:02:38.938Z,10.10
2023-02-09T09:05:06.289Z,10.77
2023-02-09T09:07:32.875Z,9.73
2023-02-09T09:09:59.297Z,11.07
2023-02-09T09:12:25.808Z,9.07
2023-02-09T09:14:52.892Z,10.63
2023-02-09T09:17:19.361Z,9.37
2023-02-09T09:19:46.030Z,13.33
2023-02-09T09:22:12.462Z,9.60
2023-02-09T09:24:40.029Z,9.80
2023-02-09T09:27:07.471Z,11.67
2023-02-09T09:29:34.212Z,10.13
2023-02-09T09:32:01.746Z,9.70
2023-02-09T09:34:28.650Z,9.90
2023-02-09T09:36:55.100Z,9.00
2023-02-09T09:39:21.570Z,10.20
2023-02-09T09:41:52.146Z,9.10
2023-02-09T09:44:27.181Z,11.80
2023-02-09T09:46:54.443Z,11.73
2023-02-09T09:49:26.086Z,13.33
2023-02-09T09:51:56.137Z,11.63
2023-02-09T09:54:26.214Z,12.10
2023-02-09T09:56:53.691Z,14.17
2023-02-09T09:59:23.745Z,13.60
2023-02-09T10:01:52.510Z,12.10
2023-02-09T10:04:20.202Z,12.10
2023-02-09T10:06:53.881Z,11.37
2023-02-09T10:09:31.658Z,10.07
2023-02-09T10:12:07.306Z,11.47
2023-02-09T10:14:33.840Z,13.27
2023-02-09T10:17:02.880Z,10.87
2023-02-09T10:19:29.644Z,10.53
2023-02-09T10:21:57.139Z,10.27
2023-02-09T10:24:25.716Z,10.93
2023-02-09T10:27:10.017Z,11.87
2023-02-09T10:29:36.419Z,9.37
2023-02-09T10:32:07.564Z,10.30
2023-02-09T10:34:42.470Z,8.80
2023-02-09T10:37:35.122Z,8.30
2023-02-09T10:40:14.174Z,11.60
2023-02-09T10:42:49.363Z,13.63
2023-02-09T10:45:24.934Z,9.03
2023-02-09T10:47:58.423Z,13.23
2023-02-09T10:50:28.626Z,8.27
2023-02-09T10:52:58.920Z,11.20
2023-02-09T10:55:29.044Z,13.30
2023-02-09T10:58:17.338Z,8.97
2023-02-09T11:00:50.238Z,7.30
2023-02-09T11:03:20.164Z,6.90
2023-02-09T11:05:47.732Z,6.10
2023-02-09T11:08:21.018Z,7.23
2023-02-09T11:11:01.153Z,6.73
2023-02-09T11:13:27.793Z,6.30
2023-02-09T11:16:19.216Z,6.50
2023-02-09T11:18:51.757Z,6.93
2023-02-09T11:21:26.427Z,12.23
2023-02-09T11:24:00.952Z,11.60
2023-02-09T11:26:37.935Z,11.80
2023-02-09T11:29:13.022Z,13.00
2023-02-09T11:31:49.670Z,12.00
2023-02-09T11:34:38.349Z,11.70
2023-02-09T11:37:18.983Z,12.23
2023-02-09T11:39:55.570Z,14.47
2023-02-09T11:42:41.016Z,14.67
2023-02-09T11:45:12.906Z,15.13
2023-02-09T11:47:51.364Z,15.37
2023-02-09T11:50:26.271Z,12.80
2023-02-09T11:52:55.886Z,13.73
2023-02-09T11:55:28.532Z,10.97
2023-02-09T11:58:05.870Z,11.43
2023-02-09T12:00:53.171Z,13.37
2023-02-09T12:03:21.156Z,13.60
2023-02-09T12:05:48.196Z,13.73
2023-02-09T12:08:30.026Z,13.30
2023-02-09T12:11:14.871Z,11.80
2023-02-09T12:14:03.968Z,13.10
2023-02-09T12:16:34.618Z,11.43
2023-02-09T12:19:03.160Z,16.50
2023-02-09T12:21:31.860Z,11.90
2023-02-09T12:24:01.647Z,11.83
2023-02-09T12:26:41.865Z,13.60
2023-02-09T12:29:33.970Z,16.43
2023-02-09T12:32:40.781Z,15.27
2023-02-09T12:35:25.322Z,15.77
2023-02-09T12:38:14.764Z,13.43
2023-02-09T12:40:41.220Z,13.63
2023-02-09T12:43:27.651Z,11.27
2023-02-09T12:46:20.037Z,11.43
2023-02-09T12:49:19.169Z,13.53
2023-02-09T12:52:03.918Z,9.73
2023-02-09T12:54:39.954Z,9.87
2023-02-09T12:57:42.939Z,10.07
2023-02-09T13:00:40.820Z,10.67
2023-02-09T13:03:12.663Z,11.50
2023-02-09T13:05:44.353Z,10.03
2023-02-09T13:08:43.919Z,11.67
2023-02-09T13:11:21.677Z,9.50
2023-02-09T13:13:53.039Z,11.00
2023-02-09T13:16:57.544Z,10.77
2023-02-09T13:19:56.293Z,10.67
2023-02-09T13:22:32.776Z,9.37
2023-02-09T13:25:00.964Z,9.60
2023-02-09T13:27:28.993Z,12.33
2023-02-09T13:29:57.714Z,11.00
2023-02-09T13:32:37.777Z,9.20
2023-02-09T13:35:15.545Z,11.03
2023-02-09T13:37:46.244Z,11.27
2023-02-09T13:40:16.126Z,10.47
2023-02-09T13:42:53.380Z,9.73
2023-02-09T13:45:20.030Z,12.00
2023-02-09T13:47:47.266Z,10.63
2023-02-09T13:50:16.736Z,11.63
2023-02-09T13:52:43.511Z,11.03
2023-02-09T13:55:12.764Z,9.83
2023-02-09T13:57:42.132Z,12.03
2023-02-09T14:00:26.982Z,10.70
2023-02-09T14:02:57.329Z,9.80
2023-02-09T14:05:39.185Z,9.50
2023-02-09T14:08:06.436Z,8.47
2023-02-09T14:10:34.432Z,10.37
2023-02-09T14:13:04.291Z,12.93
2023-02-09T14:15:54.408Z,13.87
2023-02-09T14:18:27.483Z,9.17
2023-02-09T14:21:22.076Z,9.80
2023-02-09T14:24:02.300Z,9.83
2023-02-09T14:26:32.877Z,11.37
2023-02-09T14:29:11.236Z,12.57
2023-02-09T14:31:42.512Z,10.10
2023-02-09T14:34:28.261Z,10.23
2023-02-09T14:36:56.530Z,13.43
2023-02-09T14:39:23.722Z,9.60
2023-02-09T14:42:14.626Z,14.33
2023-02-09T14:44:46.149Z,12.10
2023-02-09T14:47:28.225Z,11.53
2023-02-09T14:49:56.402Z,12.83
2023-02-09T14:52:28.030Z,10.97
2023-02-09T14:54:57.021Z,10.83
2023-02-09T14:57:25.212Z,12.77
2023-02-09T14:59:51.576Z,13.20
2023-02-09T15:02:20.466Z,15.47
2023-02-09T15:04:47.258Z,13.80
2023-02-09T15:07:18.514Z,11.50
2023-02-09T15:09:45.764Z,11.77
2023-02-09T15:12:21.634Z,13.23
2023-02-09T15:14:49.132Z,11.93
2023-02-09T15:17:17.685Z,13.80
2023-02-09T15:19:44.489Z,12.57
2023-02-09T15:22:14.254Z,14.97
2023-02-09T15:24:42.378Z,18.43
2023-02-09T15:27:32.823Z,11.90
2023-02-09T15:30:02.314Z,14.17
2023-02-09T15:32:30.198Z,13.63
2023-02-09T15:34:56.631Z,15.67
2023-02-09T15:37:25.777Z,13.70
2023-02-09T15:39:55.950Z,12.70
2023-02-09T15:42:40.513Z,12.97
2023-02-09T15:45:36.009Z,15.97
2023-02-09T15:48:03.168Z,18.33
2023-02-09T15:50:30.505Z,13.13
2023-02-09T15:52:57.671Z,15.07
2023-02-09T15:55:26.524Z,16.50
2023-02-09T15:57:53.892Z,14.90
2023-02-09T16:00:26.471Z,32.07
2023-02-09T16:02:53.333Z,20.47
2023-02-09T16:05:20.607Z,17.57
2023-02-09T16:07:48.740Z,20.60
2023-02-09T16:10:21.611Z,18.13
2023-02-09T16:12:48.911Z,13.93
2023-02-09T16:15:16.436Z,17.27
2023-02-09T16:17:43.046Z,20.17
2023-02-09T16:20:10.235Z,15.43
2023-02-09T16:22:38.956Z,13.97
2023-02-09T16:25:06.024Z,15.17
2023-02-09T16:27:32.632Z,16.87
2023-02-09T16:29:59.733Z,14.70
2023-02-09T16:32:28.016Z,15.07
2023-02-09T16:34:57.737Z,15.20
2023-02-09T16:37:30.894Z,18.60
2023-02-09T16:39:57.607Z,18.67
2023-02-09T16:42:24.893Z,15.47
2023-02-09T16:44:52.061Z,16.53
2023-02-09T16:47:21.614Z,16.70
2023-02-09T16:49:55.485Z,15.23
2023-02-09T16:52:25.156Z,16.60
2023-02-09T16:54:54.767Z,13.40
2023-02-09T16:57:22.744Z,17.67
2023-02-09T16:59:49.427Z,15.13
2023-02-09T17:02:29.157Z,14.93
2023-02-09T17:04:55.810Z,17.47
2023-02-09T17:07:24.111Z,18.90
2023-02-09T17:09:50.506Z,15.77
2023-02-09T17:12:16.896Z,17.60
2023-02-09T17:14:43.252Z,14.67
2023-02-09T17:17:17.178Z,20.80
2023-02-09T17:19:47.934Z,19.27
2023-02-09T17:22:15.606Z,20.20
2023-02-09T17:24:42.169Z,25.30
2023-02-09T17:27:09.454Z,23.67
2023-02-09T17:29:35.920Z,17.60
2023-02-09T17:32:02.875Z,25.40
2023-02-09T17:34:29.366Z,23.03
2023-02-09T17:36:57.403Z,22.63
2023-02-09T17:39:29.927Z,21.13
2023-02-09T17:41:59.013Z,27.13
2023-02-09T17:44:45.161Z,20.03
2023-02-09T17:47:14.994Z,23.33
2023-02-09T17:49:41.457Z,24.03
2023-02-09T17:52:16.966Z,22.47
2023-02-09T17:54:44.669Z,23.93
2023-02-09T17:57:12.833Z,34.23
2023-02-09T17:59:39.238Z,28.03
2023-02-09T18:02:13.620Z,28.17
2023-02-09T18:04:40.264Z,28.90
2023-02-09T18:07:06.719Z,26.90
2023-02-09T18:09:33.925Z,24.93
2023-02-09T18:12:02.380Z,29.40
2023-02-09T18:14:30.819Z,24.40
2023-02-09T18:16:57.331Z,28.90
2023-02-09T18:19:27.254Z,23.43
2023-02-09T18:21:58.404Z,22.07
2023-02-09T18:24:27.537Z,22.70
2023-02-09T18:26:55.184Z,23.20
2023-02-09T18:29:25.386Z,23.10
2023-02-09T18:31:51.813Z,22.40
2023-02-09T18:34:21.240Z,25.47
2023-02-09T18:36:47.709Z,22.87
2023-02-09T18:39:14.309Z,24.90
2023-02-09T18:41:45.559Z,33.73
2023-02-09T18:44:12.698Z,21.67
2023-02-09T18:46:40.951Z,33.90
2023-02-09T18:49:11.266Z,22.33
2023-02-09T18:51:37.673Z,23.83
2023-02-09T18:54:04.835Z,27.00
2023-02-09T18:56:31.241Z,28.40
2023-02-09T18:58:57.642Z,30.67
2023-02-09T19:01:24.738Z,26.53
2023-02-09T19:03:52.434Z,26.60
2023-02-09T19:06:19.962Z,25.80
2023-02-09T19:08:47.703Z,22.53
2023-02-09T19:11:15.302Z,29.50
2023-02-09T19:13:41.734Z,23.77
2023-02-09T19:16:10.267Z,22.97
2023-02-09T19:18:38.722Z,28.43
2023-02-09T19:21:06.560Z,21.73
2023-02-09T19:23:32.989Z,23.13
2023-02-09T19:26:04.864Z,19.80
2023-02-09T19:28:31.512Z,17.10
2023-02-09T19:30:57.952Z,20.97
2023-02-09T19:33:24.661Z,19.17
2023-02-09T19:35:57.990Z,16.97
2023-02-09T19:38:25.252Z,20.13
2023-02-09T19:41:02.038Z,19.27
2023-02-09T19:43:35.170Z,16.27
2023-02-09T19:46:01.632Z,18.13
2023-02-09T19:48:28.108Z,18.37
2023-02-09T19:50:55.694Z,20.20
2023-02-09T19:53:26.433Z,16.33
2023-02-09T19:55:53.491Z,17.80
2023-02-09T19:58:20.977Z,17.60
2023-02-09T20:00:47.838Z,18.13
2023-02-09T20:03:14.984Z,23.07
2023-02-09T20:05:42.662Z,21.40
2023-02-09T20:08:12.595Z,18.43
2023-02-09T20:10:40.094Z,22.90
2023-02-09T20:13:07.767Z,17.53
2023-02-09T20:15:34.207Z,18.47
2023-02-09T20:18:00.615Z,24.80
2023-02-09T20:20:27.125Z,27.20
2023-02-09T20:22:53.811Z,22.97
2023-02-09T20:25:20.225Z,26.30
2023-02-09T20:27:48.875Z,25.93
2023-02-09T20:30:15.967Z,28.53
2023-02-09T20:32:42.389Z,23.83
2023-02-09T20:35:11.281Z,19.73
2023-02-09T20:37:37.688Z,20.50
2023-02-09T20:40:04.613Z,19.57
2023-02-09T20:42:49.286Z,22.40
2023-02-09T20:45:34.897Z,20.77
2023-02-09T20:48:01.718Z,20.63
2023-02-09T20:50:31.215Z,21.50
2023-02-09T20:52:58.146Z,19.77
2023-02-09T20:55:24.656Z,18.57
2023-02-09T20:57:51.131Z,21.00
2023-02-09T21:00:18.688Z,19.50
2023-02-09T21:02:45.115Z,19.10
2023-02-09T21:05:11.640Z,18.97
2023-02-09T21:07:38.108Z,15.50
2023-02-09T21:10:04.864Z,19.03
2023-02-09T21:12:31.266Z,18.73
2023-02-09T21:14:58.416Z,19.90
2023-02-09T21:17:25.550Z,15.30
2023-02-09T21:19:52.072Z,21.33
2023-02-09T21:22:18.536Z,19.53
2023-02-09T21:24:44.957Z,20.53
2023-02-09T21:27:12.009Z,19.47
2023-02-09T21:29:38.502Z,23.90
2023-02-09T21:32:06.401Z,23.77
2023-02-09T21:34:33.551Z,37.03
2023-02-09T21:37:00.017Z,35.20
2023-02-09T21:39:26.470Z,35.83
2023-02-09T21:42:11.167Z,40.27
2023-02-09T21:44:38.150Z,40.33
2023-02-09T21:47:05.667Z,38.50
2023-02-09T21:49:34.815Z,39.17
2023-02-09T21:52:01.275Z,31.77
2023-02-09T21:54:33.279Z,23.90
2023-02-09T21:56:59.910Z,30.67
2023-02-09T21:59:27.003Z,27.30
2023-02-09T22:01:53.486Z,21.60
2023-02-09T22:04:20.052Z,16.73
2023-02-09T22:06:47.694Z,22.73
2023-02-09T22:09:19.595Z,24.97
2023-02-09T22:11:46.054Z,29.93
2023-02-09T22:14:12.438Z,27.47
2023-02-09T22:16:38.985Z,26.83
2023-02-09T22:19:05.409Z,25.30
2023-02-09T22:21:31.849Z,23.23
2023-02-09T22:23:58.886Z,19.40
2023-02-09T22:26:25.299Z,21.47
2023-02-09T22:28:51.709Z,20.43
2023-02-09T22:31:20.198Z,22.57
2023-02-09T22:33:46.658Z,18.83
2023-02-09T22:36:14.618Z,19.47
2023-02-09T22:38:41.655Z,15.77
2023-02-09T22:41:20.452Z,23.30
2023-02-09T22:43:48.090Z,21.20
2023-02-09T22:46:14.589Z,19.57
2023-02-09T22:48:41.109Z,20.63
2023-02-09T22:51:07.523Z,20.00
2023-02-09T22:53:34.273Z,21.73
2023-02-09T22:56:01.628Z,21.20
2023-02-09T22:58:28.678Z,21.67
2023-02-09T23:00:55.092Z,21.33
2023-02-09T23:03:21.529Z,20.03
2023-02-09T23:05:48.137Z,17.20
2023-02-09T23:08:14.710Z,17.17
2023-02-09T23:10:41.242Z,15.53
2023-02-09T23:13:07.739Z,18.93
2023-02-09T23:15:34.792Z,17.63
2023-02-09T23:18:01.432Z,17.47
2023-02-09T23:20:27.798Z,16.33
2023-02-09T23:22:55.617Z,18.67
2023-02-09T23:25:23.581Z,17.83
2023-02-09T23:27:50.151Z,18.87
2023-02-09T23:30:16.549Z,17.97
2023-02-09T23:32:43.642Z,16.17
2023-02-09T23:35:10.052Z,15.67
2023-02-09T23:37:38.084Z,13.90
2023-02-09T23:40:05.377Z,16.77
2023-02-09T23:42:31.850Z,15.20
2023-02-09T23:44:58.289Z,14.97
2023-02-09T23:47:24.803Z,14.87
2023-02-09T23:49:51.897Z,15.37
2023-02-09T23:52:18.270Z,19.17
2023-02-09T23:54:44.793Z,16.17
2023-02-09T23:57:11.195Z,13.77
2023-02-09T23:59:38.391Z,15.60
